ADDS METAR Data INFO
IDs: Format: Raw Decoded Include TAF

Data at: 1056 UTC 18 Aug 2017

KLXY 181035Z AUTO 16004KT 10SM CLR 23/22 A2999 RMK AO2 T02320218
KLXY 181015Z AUTO 14005KT 10SM CLR 23/22 A2999 RMK AO2 T02310217
KLXY 180955Z AUTO 12005KT 10SM CLR 24/22 A2998 RMK AO2 T02350218
KLXY 180935Z AUTO 15004KT 10SM CLR 23/22 A2999 RMK AO2 T02330218
KLXY 180915Z AUTO 13005KT 10SM CLR 24/22 A2999 RMK AO2 T02350219
KLXY 180855Z AUTO 18004KT 10SM CLR 24/22 A2999 RMK AO2 T02350219
KLXY 180835Z AUTO 19003KT 10SM CLR 24/22 A2999 RMK AO2 T02360220
KLXY 180815Z AUTO 16005KT 10SM CLR 24/22 A2999 RMK AO2 T02380220
KLXY 180755Z AUTO 18004KT 10SM CLR 24/22 A2999 RMK AO2 T02400220
KLXY 180735Z AUTO 17004KT 10SM CLR 24/22 A2999 RMK AO2 T02400221
KLXY 180715Z AUTO 17006KT 10SM CLR 24/22 A2999 RMK AO2 T02410221
KLXY 180655Z AUTO 17006KT 10SM CLR 24/23 A2999 RMK AO2 T02420225
KLXY 180635Z AUTO 18003KT 10SM CLR 24/23 A3000 RMK AO2 T02380225
KLXY 180615Z AUTO 20006KT 10SM CLR 24/22 A3000 RMK AO2 T02400223
KLXY 180555Z AUTO 19003KT 10SM CLR 24/22 A3000 RMK AO2 T02380224 10307 20238 403590238
KLXY 180535Z AUTO 18005KT 10SM CLR 24/23 A2999 RMK AO2 T02400225
KLXY 180515Z AUTO 17005KT 10SM CLR 24/23 A2999 RMK AO2 T02410225
KLXY 180455Z AUTO 18006KT 10SM CLR 24/23 A2999 RMK AO2 T02400226
KLXY 180435Z AUTO 17006KT 10SM CLR 24/23 A2999 RMK AO2 T02410226
KLXY 180415Z AUTO 14005KT 10SM CLR 24/23 A2999 RMK AO2 T02400227
KLXY 180355Z AUTO 13004KT 10SM CLR 24/23 A2999 RMK AO2 T02420227
KLXY 180335Z AUTO 18005KT 10SM CLR 25/23 A3000 RMK AO2 T02460227
KLXY 180320Z AUTO 00000KT 10SM CLR 24/23 A3000 RMK AO2 T02440227
KLXY 180255Z AUTO 00000KT 10SM CLR 25/23 A2999 RMK AO2 T02470225
KLXY 180235Z AUTO 00000KT 10SM CLR 25/23 A2999 RMK AO2 T02480225
KLXY 180215Z AUTO 30007KT 10SM CLR 25/23 A2999 RMK AO2 LTG DSNT NW T02500225
KLXY 180155Z AUTO 29008KT 10SM SCT080 25/23 A2999 RMK AO2 LTG DSNT NW T02520225
KLXY 180135Z AUTO 29010G26KT 10SM VCTS SCT070 BKN080 BKN110 26/22 A2999 RMK AO2 LTG DSNT NW T02620218
KLXY 180115Z AUTO 27009KT 10SM SCT070 BKN110 29/23 A2997 RMK AO2 LTG DSNT NW T02940233
KLXY 180055Z AUTO 29005KT 10SM CLR 30/24 A2997 RMK AO2 LTG DSNT W AND NW T02960239
KLXY 180035Z AUTO 00000KT 10SM SCT090 30/24 A2995 RMK AO2 LTG DSNT W AND NW T02950243
KLXY 180015Z AUTO 04003KT 10SM CLR 30/24 A2995 RMK AO2 LTG DSNT SW THRU NW T03000241
KLXY 172355Z AUTO 05003KT 10SM CLR 31/24 A2994 RMK AO2 LTG DSNT W AND NW 60035 T03080244 10359 20245
KLXY 172335Z AUTO 34005KT 10SM CLR 32/25 A2994 RMK AO2 LTG DSNT W AND NW T03210246
KLXY 172315Z AUTO 11004KT 10SM CLR 32/25 A2993 RMK AO2 LTG DSNT W AND NW T03150250
KLXY 172255Z AUTO 05003KT 10SM CLR 31/26 A2993 RMK AO2 LTG DSNT W T03050256
KLXY 172235Z AUTO 04003KT 10SM CLR 29/25 A2993 RMK AO2 T02930253
KLXY 172215Z AUTO 03004KT 10SM CLR 28/25 A2994 RMK AO2 LTG DSNT W AND NW T02790251
KLXY 172155Z AUTO 06003KT 10SM CLR 28/26 A2994 RMK AO2 LTG DSNT W AND NW T02770259
KLXY 172135Z AUTO 09003KT 10SM SCT070 SCT085 27/25 A2994 RMK AO2 T02660249
KLXY 172115Z AUTO 35006KT 10SM -RA SCT038 BKN070 OVC095 25/24 A2996 RMK AO2 T02510237
KLXY 172055Z AUTO 28007KT 10SM RA SCT036 BKN070 OVC090 25/23 A2997 RMK AO2 LTG DSNT NE E AND SW P0029 60035 T02500226
KLXY 172035Z AUTO 23005KT 5SM +RA SCT036 BKN070 OVC090 25/21 A2999 RMK AO2 LTG DSNT ALQS P0025 T02490214
KLXY 172015Z AUTO 29009G17KT 5SM VCTSRA SCT027 BKN070 OVC090 25/22 A2999 RMK AO2 LTG DSNT ALQS P0015 T02460215
KLXY 171955Z AUTO 30016G28KT 5SM TSRA SCT050 BKN055 OVC080 26/22 A3001 RMK AO2 LTG DSNT ALQS P0006 T02610224
KLXY 171935Z AUTO 26003G18KT 10SM TS SCT048 SCT070 BKN110 34/22 A3000 RMK AO2 LTG DSNT ALQS T03390220
KLXY 171915Z AUTO 19006KT 10SM TS SCT110 35/23 A3001 RMK AO2 LTG DSNT W AND NW T03480227
KLXY 171855Z AUTO 18013G19KT 130V200 10SM SCT046 SCT060 SCT075 35/23 A3002 RMK AO2 T03520231
KLXY 171835Z AUTO 20009G20KT 10SM SCT045 SCT060 34/23 A3003 RMK AO2 T03400228
KLXY 171815Z AUTO 21006G19KT 150V240 10SM SCT043 34/23 A3003 RMK AO2 T03410230
KLXY 171755Z AUTO 21007G17KT 10SM SCT041 SCT075 34/23 A3004 RMK AO2 LTG DSNT E AND NW T03430230 10343 20265
KLXY 171735Z AUTO 20013G18KT 10SM SCT039 SCT075 BKN095 34/23 A3004 RMK AO2 LTG DSNT E T03360229
KLXY 171715Z AUTO 22012G16KT 10SM SCT037 BKN080 BKN100 33/23 A3005 RMK AO2 LTG DSNT NE AND E T03280231
KLXY 171655Z AUTO 20012G17KT 10SM SCT034 BKN080 BKN100 33/23 A3004 RMK AO2 LTG DSNT NE AND E T03250230
KLXY 171635Z AUTO 19014G19KT 10SM SCT030 BKN080 33/23 A3004 RMK AO2 LTG DSNT NE T03300234
KLXY 171615Z AUTO 20013G18KT 10SM SCT028 SCT034 BKN080 31/23 A3004 RMK AO2 LTG DSNT NE T03100229
KLXY 171555Z AUTO 21010G16KT 10SM SCT024 SCT080 31/24 A3004 RMK AO2 LTG DSNT NE T03110235
KLXY 171535Z AUTO 20012G24KT 10SM BKN024 OVC090 30/24 A3004 RMK AO2 LTG DSNT NE T03010235
KLXY 171515Z AUTO 22012G19KT 10SM BKN022 BKN028 BKN090 30/23 A3004 RMK AO2 LTG DSNT NE T02960234
KLXY 171455Z AUTO 21013G25KT 10SM OVC020 29/24 A3003 RMK AO2 LTG DSNT NE T02900235
KLXY 171435Z AUTO 20015G25KT 10SM BKN018 OVC080 29/24 A3002 RMK AO2 T02860238
KLXY 171415Z AUTO 20009G23KT 10SM BKN016 BKN080 OVC120 28/24 A3002 RMK AO2 LTG DSNT N AND NE T02830241
KLXY 171355Z AUTO 19010G16KT 10SM BKN016 BKN120 28/24 A3002 RMK AO2 LTG DSNT N AND NE T02760240
KLXY 171335Z AUTO 19010G20KT 10SM SCT016 SCT120 27/24 A3002 RMK AO2 LTG DSNT N T02720238
KLXY 171315Z AUTO 19014G24KT 10SM BKN120 27/24 A3000 RMK AO2 LTG DSNT N T02710237
KLXY 171255Z AUTO 20009G19KT 10SM CLR 27/24 A3000 RMK AO2 LTG DSNT N T02680236
KLXY 171235Z AUTO 20009G15KT 10SM SCT024 SCT029 SCT120 27/24 A3000 RMK AO2 LTG DSNT N T02660235
KLXY 171215Z AUTO 20011G20KT 10SM CLR 27/24 A3000 RMK AO2 LTG DSNT N T02660235
KLXY 171155Z AUTO 19010G24KT 10SM SCT019 SCT027 27/24 A2999 RMK AO2 LTG DSNT N T02670235 10283 20266
KLXY 171135Z AUTO 19009G23KT 10SM SCT021 BKN027 BKN120 27/24 A2998 RMK AO2 LTG DSNT N T02670235
KLXY 171115Z AUTO 19009G16KT 10SM SCT021 SCT120 27/24 A2998 RMK AO2 LTG DSNT N T02670235
KLXY 171055Z AUTO 18011KT 10SM SCT021 SCT055 OVC110 27/24 A2998 RMK AO2 LTG DSNT N T02700235
KLXY 171035Z AUTO 19008KT 10SM BKN023 BKN050 OVC110 27/24 A2999 RMK AO2 LTG DSNT N T02700235
KLXY 171015Z AUTO 18008KT 10SM BKN021 BKN030 BKN120 27/24 A2998 RMK AO2 LTG DSNT N T02700235
KLXY 170955Z AUTO 18009G14KT 10SM SCT021 BKN120 27/24 A2998 RMK AO2 LTG DSNT N T02690235
KLXY 170935Z AUTO 18010KT 10SM SCT021 BKN120 27/24 A2997 RMK AO2 LTG DSNT N AND NW T02680235
KLXY 170915Z AUTO 18010KT 10SM BKN021 BKN075 BKN090 27/24 A2997 RMK AO2 T02700235
KLXY 170855Z AUTO 18008G17KT 10SM SCT021 SCT026 BKN120 27/24 A2997 RMK AO2 LTG DSNT N AND NW T02710235
KLXY 170835Z AUTO 19009G14KT 10SM SCT021 BKN120 27/23 A2999 RMK AO2 LTG DSNT N T02710234
KLXY 170815Z AUTO 18008G17KT 10SM OVC021 27/23 A2998 RMK AO2 T02730232
KLXY 170755Z AUTO 18009G14KT 10SM OVC021 27/23 A2997 RMK AO2 T02740232
KLXY 170735Z AUTO 17011G15KT 10SM OVC021 28/23 A2997 RMK AO2 T02750231
KLXY 170715Z AUTO 18011G24KT 10SM BKN023 28/23 A2997 RMK AO2 T02750230
KLXY 170655Z AUTO 17013G17KT 10SM OVC025 28/23 A2997 RMK AO2 T02750230
KLXY 170635Z AUTO 18012G16KT 10SM BKN025 28/23 A2996 RMK AO2 T02780228
KLXY 170615Z AUTO 17014G19KT 10SM CLR 28/23 A2996 RMK AO2 T02810227
KLXY 170555Z AUTO 18012G19KT 10SM CLR 28/22 A2995 RMK AO2 T02840223 10350 20284 403690252
KLXY 170535Z AUTO 17015G25KT 10SM CLR 29/22 A2994 RMK AO2 T02860220
KLXY 170515Z AUTO 18013G21KT 10SM CLR 29/22 A2994 RMK AO2 T02900216
KLXY 170455Z AUTO 18012G19KT 10SM CLR 29/21 A2993 RMK AO2 T02900212
KLXY 170435Z AUTO 17014G20KT 10SM CLR 29/21 A2993 RMK AO2 T02940210
KLXY 170415Z AUTO 18015G22KT 10SM CLR 30/21 A2992 RMK AO2 T02970208
KLXY 170355Z AUTO 17015G21KT 10SM CLR 30/21 A2992 RMK AO2 T03000210
KLXY 170335Z AUTO 17018G23KT 10SM CLR 30/21 A2991 RMK AO2 T03030211
KLXY 170315Z AUTO 16016G22KT 10SM CLR 31/21 A2991 RMK AO2 T03070213
KLXY 170255Z AUTO 16012G22KT 10SM CLR 31/22 A2990 RMK AO2 T03100215
KLXY 170235Z AUTO 16009G17KT 10SM CLR 31/22 A2990 RMK AO2 T03110217
KLXY 170215Z AUTO 16009G18KT 10SM CLR 32/22 A2990 RMK AO2 T03150218
KLXY 170155Z AUTO 16010G16KT 10SM CLR 32/22 A2989 RMK AO2 T03170218
KLXY 170135Z AUTO 15011G19KT 10SM CLR 32/22 A2989 RMK AO2 T03220217
KLXY 170115Z AUTO 15009G20KT 10SM SCT065 33/22 A2988 RMK AO2 T03250215
KLXY 170055Z AUTO 15008KT 10SM SCT065 33/21 A2988 RMK AO2 T03300207
KLXY 170035Z AUTO 17005KT 10SM CLR 33/20 A2987 RMK AO2 T03320195
KLXY 170015Z AUTO 18008KT 10SM CLR 34/20 A2986 RMK AO2 T03360195
KLXY 162355Z AUTO 17010G18KT 10SM CLR 35/19 A2987 RMK AO2 T03480191 10369 20339
KLXY 162335Z AUTO 16010G16KT 10SM SCT070 36/19 A2987 RMK AO2 T03570193
KLXY 162315Z AUTO 17011G22KT 10SM SCT070 36/20 A2987 RMK AO2 T03630197